createdAt,value
2023-03-12T00:00:11.479Z,4.90
2023-03-12T00:02:38.787Z,4.80
2023-03-12T00:05:06.590Z,4.80
2023-03-12T00:07:36.514Z,4.80
2023-03-12T00:10:05.052Z,4.80
2023-03-12T00:12:32.499Z,4.70
2023-03-12T00:14:59.809Z,4.70
2023-03-12T00:17:28.588Z,4.70
2023-03-12T00:19:55.748Z,4.80
2023-03-12T00:22:23.353Z,4.70
2023-03-12T00:24:54.429Z,4.70
2023-03-12T00:27:22.297Z,4.70
2023-03-12T00:29:50.303Z,4.70
2023-03-12T00:32:17.650Z,4.70
2023-03-12T00:34:50.653Z,4.80
2023-03-12T00:37:18.017Z,4.80
2023-03-12T00:39:45.361Z,4.80
2023-03-12T00:42:12.605Z,4.70
2023-03-12T00:44:40.142Z,4.70
2023-03-12T00:47:07.602Z,4.70
2023-03-12T00:49:37.348Z,4.70
2023-03-12T00:52:05.237Z,4.70
2023-03-12T00:54:32.458Z,4.70
2023-03-12T00:56:59.748Z,4.70
2023-03-12T00:59:27.044Z,4.70
2023-03-12T01:01:54.727Z,4.70
2023-03-12T01:04:22.040Z,4.70
2023-03-12T01:06:49.285Z,4.60
2023-03-12T01:09:16.712Z,4.60
2023-03-12T01:11:44.317Z,4.60
2023-03-12T01:14:11.614Z,4.60
2023-03-12T01:16:39.134Z,4.60
2023-03-12T01:19:06.574Z,4.60
2023-03-12T01:21:34.033Z,4.60
2023-03-12T01:24:01.275Z,4.60
2023-03-12T01:26:28.625Z,4.60
2023-03-12T01:28:55.847Z,4.50
2023-03-12T01:31:23.234Z,4.40
2023-03-12T01:33:54.033Z,4.40
2023-03-12T01:36:29.925Z,4.40
2023-03-12T01:38:59.806Z,4.40
2023-03-12T01:41:29.111Z,4.40
2023-03-12T01:43:56.594Z,4.50
2023-03-12T01:46:30.509Z,4.40
2023-03-12T01:49:10.205Z,4.40
2023-03-12T01:51:40.824Z,4.40
2023-03-12T01:54:19.968Z,4.40
2023-03-12T01:56:49.584Z,4.40
2023-03-12T01:59:23.537Z,4.40
2023-03-12T02:01:52.019Z,4.30
2023-03-12T02:04:22.409Z,4.30
2023-03-12T02:07:01.124Z,4.30
2023-03-12T02:09:28.653Z,4.30
2023-03-12T02:11:55.984Z,4.30
2023-03-12T02:14:23.467Z,4.20
2023-03-12T02:16:52.172Z,4.30
2023-03-12T02:19:29.642Z,4.20
2023-03-12T02:21:58.182Z,4.20
2023-03-12T02:24:32.856Z,4.20
2023-03-12T02:27:01.822Z,4.20
2023-03-12T02:29:32.136Z,4.20
2023-03-12T02:32:01.964Z,4.10
2023-03-12T02:34:29.447Z,4.10
2023-03-12T02:36:56.803Z,4.10
2023-03-12T02:39:24.185Z,4.10
2023-03-12T02:41:54.226Z,4.00
2023-03-12T02:44:27.935Z,4.10
2023-03-12T02:46:57.777Z,4.10
2023-03-12T02:49:28.097Z,4.10
2023-03-12T02:51:55.505Z,4.10
2023-03-12T02:54:24.139Z,4.00
2023-03-12T02:56:52.212Z,4.00
2023-03-12T02:59:21.949Z,4.00
2023-03-12T03:01:54.755Z,4.10
2023-03-12T03:04:22.789Z,4.00
2023-03-12T03:06:50.856Z,4.10
2023-03-12T03:09:18.443Z,4.10
2023-03-12T03:11:45.797Z,4.00
2023-03-12T03:14:13.554Z,4.00
2023-03-12T03:16:41.123Z,3.90
2023-03-12T03:19:08.858Z,3.90
2023-03-12T03:21:36.178Z,3.90
2023-03-12T03:24:03.994Z,3.90
2023-03-12T03:26:31.470Z,3.90
2023-03-12T03:28:58.865Z,3.80
2023-03-12T03:31:26.300Z,3.80
2023-03-12T03:33:53.764Z,3.80
2023-03-12T03:36:23.307Z,3.80
2023-03-12T03:39:13.387Z,3.80
2023-03-12T03:41:40.839Z,3.80
2023-03-12T03:44:08.716Z,3.80
2023-03-12T03:46:38.413Z,3.80
2023-03-12T03:49:09.309Z,3.70
2023-03-12T03:51:39.012Z,3.80
2023-03-12T03:54:10.922Z,3.90
2023-03-12T03:56:41.121Z,3.80
2023-03-12T03:59:10.189Z,3.80
2023-03-12T04:01:39.614Z,3.80
2023-03-12T04:04:07.062Z,3.80
2023-03-12T04:06:35.509Z,3.80
2023-03-12T04:09:03.029Z,3.80
2023-03-12T04:11:32.118Z,3.80
2023-03-12T04:14:00.632Z,3.80
2023-03-12T04:16:31.436Z,3.80
2023-03-12T04:18:59.728Z,3.80
2023-03-12T04:21:27.860Z,3.60
2023-03-12T04:23:55.244Z,3.60
2023-03-12T04:26:26.300Z,3.60
2023-03-12T04:28:54.685Z,3.60
2023-03-12T04:31:22.235Z,3.60
2023-03-12T04:33:51.145Z,3.60
2023-03-12T04:36:20.855Z,3.60
2023-03-12T04:38:50.165Z,3.60
2023-03-12T04:41:21.048Z,3.60
2023-03-12T04:44:12.928Z,3.60
2023-03-12T04:46:43.268Z,3.60
2023-03-12T04:49:14.207Z,3.60
2023-03-12T04:51:43.202Z,3.60
2023-03-12T04:54:10.575Z,3.50
2023-03-12T04:56:40.086Z,3.50
2023-03-12T04:59:07.599Z,3.50
2023-03-12T05:01:37.174Z,3.50
2023-03-12T05:04:10.512Z,3.40
2023-03-12T05:06:38.145Z,3.40
2023-03-12T05:09:05.455Z,3.50
2023-03-12T05:11:33.528Z,3.60
2023-03-12T05:14:01.360Z,3.60
2023-03-12T05:16:30.006Z,3.60
2023-03-12T05:18:57.921Z,4.10
2023-03-12T05:21:26.219Z,3.50
2023-03-12T05:23:55.891Z,3.50
2023-03-12T05:26:29.338Z,3.60
2023-03-12T05:29:05.200Z,3.50
2023-03-12T05:31:35.505Z,3.50
2023-03-12T05:34:06.035Z,3.40
2023-03-12T05:36:37.468Z,3.60
2023-03-12T05:39:06.130Z,3.60
2023-03-12T05:41:35.123Z,3.50
2023-03-12T05:44:16.169Z,3.50
2023-03-12T05:46:47.348Z,3.50
2023-03-12T05:49:14.809Z,3.50
2023-03-12T05:51:43.558Z,3.50
2023-03-12T05:54:11.484Z,3.60
2023-03-12T05:56:38.929Z,3.70
2023-03-12T05:59:07.903Z,3.70
2023-03-12T06:01:35.405Z,3.60
2023-03-12T06:04:04.591Z,3.60
2023-03-12T06:06:33.987Z,3.60
2023-03-12T06:09:02.046Z,3.60
2023-03-12T06:11:30.108Z,3.70
2023-03-12T06:13:57.725Z,3.70
2023-03-12T06:16:27.491Z,3.70
2023-03-12T06:18:57.495Z,3.70
2023-03-12T06:21:27.390Z,3.70
2023-03-12T06:23:55.057Z,3.70
2023-03-12T06:26:28.333Z,3.70
2023-03-12T06:28:55.961Z,3.80
2023-03-12T06:31:23.919Z,3.70
2023-03-12T06:33:51.743Z,3.80
2023-03-12T06:36:19.006Z,3.80
2023-03-12T06:38:46.279Z,3.90
2023-03-12T06:41:18.467Z,3.90
2023-03-12T06:43:46.559Z,3.90
2023-03-12T06:46:16.977Z,3.90
2023-03-12T06:48:46.256Z,3.80
2023-03-12T06:51:15.908Z,3.90
2023-03-12T06:53:43.746Z,3.90
2023-03-12T06:56:11.762Z,3.90
2023-03-12T06:58:40.273Z,3.90
2023-03-12T07:01:07.750Z,4.00
2023-03-12T07:03:35.674Z,4.00
2023-03-12T07:06:03.122Z,4.10
2023-03-12T07:08:31.189Z,4.20
2023-03-12T07:11:01.792Z,4.20
2023-03-12T07:13:30.840Z,4.20
2023-03-12T07:15:58.439Z,4.20
2023-03-12T07:18:25.828Z,4.10
2023-03-12T07:20:53.377Z,4.10
2023-03-12T07:23:21.271Z,4.10
2023-03-12T07:25:48.955Z,4.10
2023-03-12T07:28:17.030Z,4.00
2023-03-12T07:30:50.404Z,3.90
2023-03-12T07:33:21.983Z,3.90
2023-03-12T07:35:51.698Z,4.00
2023-03-12T07:38:19.857Z,4.00
2023-03-12T07:40:57.731Z,4.00
2023-03-12T07:43:25.945Z,4.00
2023-03-12T07:45:55.444Z,4.10
2023-03-12T07:48:22.936Z,4.20
2023-03-12T07:50:50.856Z,4.20
2023-03-12T07:53:18.610Z,4.10
2023-03-12T07:55:48.006Z,4.10
2023-03-12T07:58:17.301Z,4.20
2023-03-12T08:00:45.724Z,4.20
2023-03-12T08:03:13.752Z,4.40
2023-03-12T08:05:41.620Z,4.50
2023-03-12T08:08:09.552Z,4.70
2023-03-12T08:10:37.470Z,4.70
2023-03-12T08:13:05.054Z,4.80
2023-03-12T08:15:33.532Z,4.80
2023-03-12T08:18:01.666Z,4.90
2023-03-12T08:20:29.012Z,4.90
2023-03-12T08:22:56.403Z,5.00
2023-03-12T08:25:24.809Z,5.00
2023-03-12T08:27:52.738Z,5.10
2023-03-12T08:30:20.296Z,5.00
2023-03-12T08:32:47.644Z,5.10
2023-03-12T08:35:15.076Z,5.20
2023-03-12T08:37:42.372Z,5.20
2023-03-12T08:40:15.989Z,5.30
2023-03-12T08:42:44.609Z,5.20
2023-03-12T08:45:13.249Z,5.20
2023-03-12T08:47:41.905Z,5.30
2023-03-12T08:50:12.042Z,5.30
2023-03-12T08:52:39.845Z,5.40
2023-03-12T08:55:07.505Z,5.50
2023-03-12T08:57:34.869Z,5.50
2023-03-12T09:00:05.422Z,5.60
2023-03-12T09:02:32.823Z,5.80
2023-03-12T09:05:00.226Z,5.80
2023-03-12T09:07:27.446Z,5.70
2023-03-12T09:09:57.988Z,5.60
2023-03-12T09:12:25.843Z,5.60
2023-03-12T09:15:08.503Z,5.60
2023-03-12T09:17:35.968Z,5.50
2023-03-12T09:20:07.244Z,5.50
2023-03-12T09:22:38.160Z,5.60
2023-03-12T09:25:07.637Z,5.60
2023-03-12T09:27:43.375Z,5.60
2023-03-12T09:30:13.942Z,5.40
2023-03-12T09:32:41.906Z,5.50
2023-03-12T09:35:09.616Z,5.60
2023-03-12T09:37:36.959Z,5.70
2023-03-12T09:40:07.879Z,5.70
2023-03-12T09:42:41.163Z,5.90
2023-03-12T09:45:21.774Z,5.90
2023-03-12T09:47:52.591Z,5.80
2023-03-12T09:50:33.676Z,5.70
2023-03-12T09:53:19.037Z,5.60
2023-03-12T09:55:50.317Z,5.50
2023-03-12T09:58:26.758Z,5.60
2023-03-12T10:01:12.518Z,5.70
2023-03-12T10:04:02.358Z,5.70
2023-03-12T10:06:38.039Z,5.60
2023-03-12T10:09:29.498Z,5.70
2023-03-12T10:12:10.568Z,5.80
2023-03-12T10:14:52.116Z,5.80
2023-03-12T10:17:31.542Z,5.80
2023-03-12T10:20:20.578Z,5.90
2023-03-12T10:23:14.265Z,5.90
2023-03-12T10:25:49.941Z,5.90
2023-03-12T10:28:35.940Z,6.00
2023-03-12T10:31:12.385Z,5.90
2023-03-12T10:33:54.397Z,6.00
2023-03-12T10:36:28.573Z,6.10
2023-03-12T10:38:56.046Z,6.00
2023-03-12T10:41:31.624Z,5.90
2023-03-12T10:44:08.211Z,6.10
2023-03-12T10:46:59.997Z,6.00
2023-03-12T10:49:30.859Z,6.00
2023-03-12T10:52:07.302Z,6.00
2023-03-12T10:54:40.678Z,6.10
2023-03-12T10:57:12.372Z,6.20
2023-03-12T10:59:43.227Z,6.30
2023-03-12T11:02:40.031Z,6.40
2023-03-12T11:05:49.851Z,6.50
2023-03-12T11:08:35.275Z,6.60
2023-03-12T11:11:04.039Z,6.70
2023-03-12T11:13:38.764Z,6.60
2023-03-12T11:16:18.121Z,6.60
2023-03-12T11:19:00.144Z,6.70
2023-03-12T11:21:29.420Z,6.70
2023-03-12T11:23:59.350Z,6.90
2023-03-12T11:26:51.190Z,7.10
2023-03-12T11:29:30.806Z,7.30
2023-03-12T11:32:06.177Z,7.30
2023-03-12T11:34:37.226Z,7.10
2023-03-12T11:37:32.914Z,6.80
2023-03-12T11:40:10.064Z,6.80
2023-03-12T11:42:45.916Z,7.10
2023-03-12T11:45:16.264Z,7.40
2023-03-12T11:48:01.053Z,7.50
2023-03-12T11:51:00.547Z,7.50
2023-03-12T11:53:30.438Z,7.50
2023-03-12T11:56:15.439Z,7.10
2023-03-12T11:59:14.232Z,7.30
2023-03-12T12:05:32.354Z,7.40
2023-03-12T12:08:33.514Z,7.30
2023-03-12T12:29:13.212Z,7.60
2023-03-12T12:31:58.281Z,7.80
2023-03-12T12:34:56.263Z,8.10
2023-03-12T12:37:50.617Z,8.10
2023-03-12T12:40:22.940Z,8.30
2023-03-12T12:43:05.814Z,8.20
2023-03-12T12:45:33.081Z,8.10
2023-03-12T12:48:09.137Z,8.30
2023-03-12T12:50:39.995Z,8.30
2023-03-12T12:53:13.841Z,8.30
2023-03-12T12:55:46.648Z,8.60
2023-03-12T12:58:30.622Z,8.80
2023-03-12T13:01:02.410Z,9.10
2023-03-12T13:03:30.856Z,9.50
2023-03-12T13:06:03.436Z,10.00
2023-03-12T13:08:43.094Z,10.00
2023-03-12T13:11:20.038Z,10.10
2023-03-12T13:14:12.235Z,11.00
2023-03-12T13:16:43.406Z,10.60
2023-03-12T13:19:28.392Z,10.30
2023-03-12T13:22:27.001Z,9.90
2023-03-12T13:25:21.633Z,11.80
2023-03-12T13:27:59.411Z,15.10
2023-03-12T13:30:35.690Z,16.50
2023-03-12T13:33:10.587Z,17.40
2023-03-12T13:35:39.735Z,17.40
2023-03-12T13:38:50.350Z,16.30
2023-03-12T13:41:32.734Z,16.70
2023-03-12T13:44:00.761Z,19.50
2023-03-12T13:46:40.512Z,20.70
2023-03-12T13:49:14.627Z,19.30
2023-03-12T13:51:53.737Z,16.80
2023-03-12T13:54:25.708Z,15.20
2023-03-12T13:57:12.154Z,13.90
2023-03-12T13:59:54.038Z,15.90
2023-03-12T14:02:28.209Z,17.50
2023-03-12T14:05:10.589Z,17.70
2023-03-12T14:07:38.150Z,18.40
2023-03-12T14:10:28.534Z,16.60
2023-03-12T14:13:34.423Z,14.60
2023-03-12T14:16:19.315Z,15.70
2023-03-12T14:18:48.087Z,19.00
2023-03-12T14:21:17.739Z,20.40
2023-03-12T14:23:56.926Z,21.40
2023-03-12T14:26:28.034Z,21.00
2023-03-12T14:29:15.710Z,21.30
2023-03-12T14:31:43.348Z,21.20
2023-03-12T14:34:21.537Z,21.50
2023-03-12T14:37:05.925Z,21.10
2023-03-12T14:39:45.209Z,19.90
2023-03-12T14:42:29.526Z,19.20
2023-03-12T14:45:01.750Z,19.10
2023-03-12T14:47:30.712Z,19.20
2023-03-12T14:49:58.436Z,17.60
2023-03-12T14:52:28.365Z,15.30
2023-03-12T14:55:01.585Z,13.90
2023-03-12T14:57:30.356Z,13.10
2023-03-12T14:59:59.486Z,13.00
2023-03-12T15:02:30.110Z,13.60
2023-03-12T15:05:00.735Z,14.10
2023-03-12T15:07:32.665Z,14.10
2023-03-12T15:10:00.458Z,14.50
2023-03-12T15:12:35.711Z,14.80
2023-03-12T15:15:10.858Z,14.70
2023-03-12T15:17:38.499Z,15.50
2023-03-12T15:20:09.534Z,15.50
2023-03-12T15:22:37.769Z,15.00
2023-03-12T15:25:23.629Z,14.30
2023-03-12T15:28:06.444Z,13.70
2023-03-12T15:30:35.498Z,13.00
2023-03-12T15:33:19.075Z,12.40
2023-03-12T15:36:19.619Z,11.70
2023-03-12T15:38:50.880Z,11.10
2023-03-12T15:41:25.694Z,10.80
2023-03-12T15:43:56.562Z,11.10
2023-03-12T15:46:25.197Z,11.30
2023-03-12T15:48:57.802Z,11.50
2023-03-12T15:51:34.811Z,11.60
2023-03-12T15:54:14.563Z,11.80
2023-03-12T15:56:41.915Z,12.10
2023-03-12T15:59:27.938Z,12.10
2023-03-12T16:01:56.904Z,11.60
2023-03-12T16:04:24.699Z,11.30
2023-03-12T16:06:53.483Z,11.20
2023-03-12T16:09:29.104Z,11.10
2023-03-12T16:11:57.295Z,11.00
2023-03-12T16:14:29.336Z,10.70
2023-03-12T16:16:56.860Z,10.40
2023-03-12T16:19:27.118Z,10.40
2023-03-12T16:21:54.547Z,10.30
2023-03-12T16:24:21.854Z,10.20
2023-03-12T16:26:58.230Z,10.10
2023-03-12T16:29:37.630Z,9.90
2023-03-12T16:32:15.220Z,9.70
2023-03-12T16:34:43.105Z,9.60
2023-03-12T16:37:12.405Z,9.60
2023-03-12T16:39:40.244Z,9.40
2023-03-12T16:42:16.878Z,9.10
2023-03-12T16:44:46.315Z,9.00
2023-03-12T16:47:14.650Z,8.80
2023-03-12T16:49:44.085Z,8.70
2023-03-12T16:52:31.466Z,8.70
2023-03-12T16:54:58.895Z,8.60
2023-03-12T16:57:41.484Z,8.50
2023-03-12T17:00:14.043Z,8.50
2023-03-12T17:02:41.478Z,8.50
2023-03-12T17:05:09.185Z,8.40
2023-03-12T17:07:36.591Z,8.30
2023-03-12T17:10:04.748Z,8.30
2023-03-12T17:12:38.548Z,9.20
2023-03-12T17:15:13.256Z,8.30
2023-03-12T17:17:40.710Z,8.20
2023-03-12T17:20:10.702Z,8.20
2023-03-12T17:22:37.983Z,8.20
2023-03-12T17:25:06.211Z,8.20
2023-03-12T17:27:33.747Z,8.10
2023-03-12T17:30:01.135Z,8.10
2023-03-12T17:32:30.544Z,8.00
2023-03-12T17:35:00.129Z,8.00
2023-03-12T17:37:27.438Z,8.00
2023-03-12T17:39:54.964Z,8.00
2023-03-12T17:42:22.498Z,8.00
2023-03-12T17:44:49.794Z,8.00
2023-03-12T17:47:17.205Z,7.90
2023-03-12T17:49:44.608Z,7.90
2023-03-12T17:52:13.316Z,7.90
2023-03-12T17:54:40.855Z,7.90
2023-03-12T17:57:08.322Z,7.90
2023-03-12T17:59:35.809Z,7.80
2023-03-12T18:02:03.610Z,7.80
2023-03-12T18:04:32.848Z,7.80
2023-03-12T18:07:00.789Z,7.80
2023-03-12T18:09:28.460Z,7.80
2023-03-12T18:11:55.797Z,7.80
2023-03-12T18:14:23.251Z,7.80
2023-03-12T18:16:50.518Z,7.70
2023-03-12T18:19:18.130Z,7.70
2023-03-12T18:21:45.565Z,7.70
2023-03-12T18:24:14.305Z,7.70
2023-03-12T18:26:42.492Z,7.70
2023-03-12T18:29:09.706Z,7.70
2023-03-12T18:31:37.120Z,7.70
2023-03-12T18:34:04.515Z,7.60
2023-03-12T18:36:31.921Z,7.60
2023-03-12T18:38:59.698Z,7.60
2023-03-12T18:41:31.454Z,7.60
2023-03-12T18:44:02.674Z,7.60
2023-03-12T18:46:30.148Z,7.50
2023-03-12T18:48:57.481Z,7.50
2023-03-12T18:51:24.806Z,7.50
2023-03-12T18:53:52.093Z,7.40
2023-03-12T18:56:19.419Z,7.40
2023-03-12T18:58:47.012Z,7.40
2023-03-12T19:01:14.263Z,7.40
2023-03-12T19:03:41.490Z,7.40
2023-03-12T19:06:12.350Z,7.40
2023-03-12T19:08:40.445Z,7.40
2023-03-12T19:11:10.105Z,7.40
2023-03-12T19:13:37.852Z,7.50
2023-03-12T19:16:11.411Z,7.40
2023-03-12T19:18:39.589Z,7.40
2023-03-12T19:21:10.007Z,7.40
2023-03-12T19:23:37.402Z,7.40
2023-03-12T19:26:05.434Z,7.30
2023-03-12T19:28:32.634Z,7.20
2023-03-12T19:31:05.342Z,7.10
2023-03-12T19:33:33.475Z,7.00
2023-03-12T19:36:00.968Z,7.00
2023-03-12T19:38:28.444Z,6.90
2023-03-12T19:40:57.580Z,6.90
2023-03-12T19:43:28.727Z,6.90
2023-03-12T19:45:56.444Z,6.90
2023-03-12T19:48:25.422Z,6.90
2023-03-12T19:50:53.950Z,6.90
2023-03-12T19:53:21.560Z,6.90
2023-03-12T19:55:49.858Z,6.90
2023-03-12T19:58:17.712Z,6.90
2023-03-12T20:00:45.326Z,6.80
2023-03-12T20:03:12.724Z,6.80
2023-03-12T20:05:44.186Z,6.80
2023-03-12T20:08:12.084Z,6.80
2023-03-12T20:10:39.709Z,6.70
2023-03-12T20:13:08.993Z,6.60
2023-03-12T20:15:39.613Z,6.50
2023-03-12T20:18:07.039Z,6.50
2023-03-12T20:20:34.442Z,6.50
2023-03-12T20:23:01.694Z,6.40
2023-03-12T20:25:29.070Z,6.40
2023-03-12T20:27:58.068Z,6.40
2023-03-12T20:30:25.265Z,6.40
2023-03-12T20:32:52.711Z,6.40
2023-03-12T20:35:20.140Z,6.50
2023-03-12T20:37:47.547Z,6.50
2023-03-12T20:40:14.919Z,6.50
2023-03-12T20:42:43.386Z,6.40
2023-03-12T20:45:11.351Z,6.40
2023-03-12T20:47:40.397Z,6.40
2023-03-12T20:50:08.921Z,6.30
2023-03-12T20:52:36.328Z,6.30
2023-03-12T20:55:03.946Z,6.30
2023-03-12T20:57:31.515Z,6.20
2023-03-12T21:00:00.172Z,6.20
2023-03-12T21:02:27.606Z,6.10
2023-03-12T21:04:54.993Z,6.20
2023-03-12T21:07:25.072Z,6.10
2023-03-12T21:09:52.596Z,6.10
2023-03-12T21:12:19.973Z,6.00
2023-03-12T21:14:47.916Z,6.00
2023-03-12T21:17:15.472Z,6.00
2023-03-12T21:19:43.455Z,6.00
2023-03-12T21:22:11.145Z,6.00
2023-03-12T21:24:38.649Z,5.90
2023-03-12T21:27:06.112Z,5.80
2023-03-12T21:29:33.640Z,5.80
2023-03-12T21:32:00.916Z,5.80
2023-03-12T21:34:30.416Z,5.80
2023-03-12T21:36:57.782Z,5.70
2023-03-12T21:39:27.329Z,5.70
2023-03-12T21:41:57.777Z,5.70
2023-03-12T21:44:25.763Z,5.60
2023-03-12T21:46:53.650Z,5.70
2023-03-12T21:49:21.518Z,5.70
2023-03-12T21:51:48.850Z,5.60
2023-03-12T21:54:16.197Z,5.60
2023-03-12T21:56:43.592Z,5.50
2023-03-12T21:59:10.947Z,5.50
2023-03-12T22:01:38.417Z,5.50
2023-03-12T22:04:05.985Z,5.50
2023-03-12T22:06:33.457Z,5.40
2023-03-12T22:09:01.017Z,5.40
2023-03-12T22:11:28.620Z,5.50
2023-03-12T22:13:56.301Z,5.50
2023-03-12T22:16:23.797Z,5.50
2023-03-12T22:18:51.232Z,5.40
2023-03-12T22:21:20.794Z,5.40
2023-03-12T22:23:51.733Z,5.30
2023-03-12T22:26:21.539Z,5.20
2023-03-12T22:28:55.867Z,5.10
2023-03-12T22:31:25.949Z,5.10
2023-03-12T22:33:53.585Z,5.10
2023-03-12T22:36:21.465Z,5.00
2023-03-12T22:38:49.492Z,4.90
2023-03-12T22:41:16.784Z,4.90
2023-03-12T22:43:45.003Z,4.90
2023-03-12T22:46:13.272Z,4.80
2023-03-12T22:48:44.255Z,4.80
2023-03-12T22:51:12.774Z,4.80
2023-03-12T22:53:40.272Z,4.70
2023-03-12T22:56:10.158Z,4.70
2023-03-12T22:58:37.964Z,4.80
2023-03-12T23:01:08.765Z,4.80
2023-03-12T23:03:37.822Z,4.80
2023-03-12T23:06:19.249Z,4.80
2023-03-12T23:08:47.821Z,4.80
2023-03-12T23:11:16.797Z,4.80
2023-03-12T23:13:45.434Z,4.80
2023-03-12T23:16:15.638Z,4.80
2023-03-12T23:18:43.100Z,4.80
2023-03-12T23:21:13.777Z,4.80
2023-03-12T23:23:43.556Z,4.90
2023-03-12T23:26:26.576Z,4.80
2023-03-12T23:28:58.846Z,4.90
2023-03-12T23:31:27.917Z,4.80
2023-03-12T23:33:56.285Z,4.80
2023-03-12T23:36:24.626Z,4.80
2023-03-12T23:38:51.844Z,4.80
2023-03-12T23:41:24.312Z,4.80
2023-03-12T23:43:52.565Z,4.80
2023-03-12T23:46:20.216Z,4.80
2023-03-12T23:48:48.042Z,4.80
2023-03-12T23:51:22.691Z,5.00
2023-03-12T23:53:51.202Z,5.00
2023-03-12T23:56:21.157Z,5.10
2023-03-12T23:58:49.804Z,5.00
